createdAt,value
2018-04-12T00:01:27.415Z,37.70
2018-04-12T00:03:54.511Z,40.10
2018-04-12T00:06:20.835Z,32.73
2018-04-12T00:08:47.172Z,35.43
2018-04-12T00:11:13.515Z,40.67
2018-04-12T00:13:40.015Z,37.70
2018-04-12T00:16:07.131Z,40.60
2018-04-12T00:18:33.495Z,40.97
2018-04-12T00:20:59.917Z,38.57
2018-04-12T00:23:26.283Z,39.07
2018-04-12T00:25:52.608Z,35.47
2018-04-12T00:28:18.979Z,45.67
2018-04-12T00:30:45.359Z,45.47
2018-04-12T00:33:12.435Z,39.27
2018-04-12T00:35:39.659Z,47.70
2018-04-12T00:38:06.036Z,37.63
2018-04-12T00:40:32.409Z,45.57
2018-04-12T00:42:58.771Z,45.90
2018-04-12T00:45:25.109Z,49.93
2018-04-12T00:47:51.427Z,55.63
2018-04-12T00:50:17.746Z,46.20
2018-04-12T00:52:44.090Z,40.10
2018-04-12T00:55:11.155Z,55.93
2018-04-12T00:57:38.211Z,40.27
2018-04-12T01:00:05.130Z,43.10
2018-04-12T01:02:32.951Z,59.37
2018-04-12T01:04:59.307Z,50.03
2018-04-12T01:07:25.627Z,47.13
2018-04-12T01:09:52.694Z,40.80
2018-04-12T01:12:19.075Z,42.13
2018-04-12T01:14:45.439Z,46.30
2018-04-12T01:17:11.749Z,54.43
2018-04-12T01:19:38.114Z,57.47
2018-04-12T01:22:04.787Z,61.03
2018-04-12T01:24:32.566Z,58.67
2018-04-12T01:26:58.894Z,63.53
2018-04-12T01:29:25.962Z,57.03
2018-04-12T01:31:52.316Z,71.23
2018-04-12T01:34:19.438Z,60.80
2018-04-12T01:36:45.905Z,76.43
2018-04-12T01:39:13.723Z,74.40
2018-04-12T01:41:40.103Z,61.50
2018-04-12T01:44:07.210Z,69.90
2018-04-12T01:46:34.300Z,77.93
2018-04-12T01:49:00.610Z,85.63
2018-04-12T01:51:27.016Z,73.97
2018-04-12T01:53:54.885Z,66.77
2018-04-12T01:56:22.755Z,105.10
2018-04-12T01:58:49.074Z,63.77
2018-04-12T02:01:15.414Z,84.30
2018-04-12T02:03:41.753Z,77.97
2018-04-12T02:06:08.109Z,81.17
2018-04-12T02:08:34.443Z,87.30
2018-04-12T02:11:00.787Z,82.97
2018-04-12T02:13:27.199Z,84.67
2018-04-12T02:15:54.336Z,73.37
2018-04-12T02:18:20.699Z,94.43
2018-04-12T02:20:47.015Z,105.37
2018-04-12T02:23:13.363Z,91.60
2018-04-12T02:25:39.695Z,97.50
2018-04-12T02:28:06.021Z,108.33
2018-04-12T02:30:32.359Z,172.23
2018-04-12T02:32:58.678Z,228.07
2018-04-12T02:35:25.015Z,173.83
2018-04-12T02:37:52.114Z,111.60
2018-04-12T02:40:18.423Z,81.60
2018-04-12T02:42:45.518Z,114.77
2018-04-12T02:45:11.831Z,133.40
2018-04-12T02:47:38.186Z,94.30
2018-04-12T02:50:04.958Z,105.03
2018-04-12T02:52:31.429Z,122.97
2018-04-12T02:54:57.791Z,148.33
2018-04-12T02:57:24.127Z,171.60
2018-04-12T02:59:51.246Z,192.20
2018-04-12T03:02:17.570Z,373.40
2018-04-12T03:04:43.923Z,269.23
2018-04-12T03:07:10.275Z,339.87
2018-04-12T03:09:36.610Z,254.93
2018-04-12T03:12:03.062Z,216.40
2018-04-12T03:14:29.399Z,228.37
2018-04-12T03:16:55.723Z,238.60
2018-04-12T03:19:22.054Z,278.03
2018-04-12T03:21:49.103Z,232.17
2018-04-12T03:24:15.455Z,245.03
2018-04-12T03:26:41.779Z,213.13
2018-04-12T03:29:08.142Z,215.40
2018-04-12T03:31:34.461Z,216.87
2018-04-12T03:34:01.544Z,202.60
2018-04-12T03:36:27.921Z,180.30
2018-04-12T03:38:54.263Z,234.77
2018-04-12T03:41:21.378Z,231.53
2018-04-12T03:43:48.447Z,215.33
2018-04-12T03:46:15.494Z,201.13
2018-04-12T03:48:42.601Z,214.20
2018-04-12T03:51:09.630Z,199.77
2018-04-12T03:53:35.986Z,208.83
2018-04-12T03:56:02.362Z,188.87
2018-04-12T03:58:28.687Z,186.20
2018-04-12T04:00:55.267Z,205.23
2018-04-12T04:03:21.583Z,193.50
2018-04-12T04:05:47.975Z,172.60
2018-04-12T04:08:15.027Z,176.37
2018-04-12T04:10:41.383Z,167.30
2018-04-12T04:13:08.446Z,152.47
2018-04-12T04:15:47.167Z,189.10
2018-04-12T04:18:25.918Z,181.17
2018-04-12T04:21:17.483Z,164.80
2018-04-12T04:23:43.898Z,181.17
2018-04-12T04:26:10.215Z,223.47
2018-04-12T04:28:37.286Z,188.57
2018-04-12T04:31:03.614Z,223.37
2018-04-12T04:33:29.952Z,225.23
2018-04-12T04:35:56.319Z,189.03
2018-04-12T04:38:22.687Z,160.30
2018-04-12T04:40:49.796Z,218.03
2018-04-12T04:43:16.174Z,285.43
2018-04-12T04:45:42.580Z,238.33
2018-04-12T04:48:08.946Z,285.23
2018-04-12T04:50:35.323Z,261.37
2018-04-12T04:53:01.698Z,335.67
2018-04-12T04:55:28.174Z,259.17
2018-04-12T04:57:55.336Z,240.40
2018-04-12T05:00:21.855Z,300.87
2018-04-12T05:02:50.559Z,256.77
2018-04-12T05:05:16.959Z,262.63
2018-04-12T05:07:43.400Z,255.70
2018-04-12T05:10:10.539Z,280.30
2018-04-12T05:12:37.050Z,298.60
2018-04-12T05:15:03.612Z,326.97
2018-04-12T05:17:29.971Z,285.33
2018-04-12T05:19:56.407Z,221.60
2018-04-12T05:22:22.885Z,260.23
2018-04-12T05:24:49.525Z,253.53
2018-04-12T05:27:16.675Z,284.93
2018-04-12T05:29:43.963Z,260.70
2018-04-12T05:32:10.491Z,279.43
2018-04-12T05:34:36.922Z,242.03
2018-04-12T05:37:04.159Z,339.10
2018-04-12T05:39:30.526Z,301.60
2018-04-12T05:41:56.901Z,344.47
2018-04-12T05:44:24.037Z,285.27
2018-04-12T05:46:50.435Z,306.33
2018-04-12T05:49:16.863Z,288.93
2018-04-12T05:51:43.987Z,325.10
2018-04-12T05:54:10.363Z,326.67
2018-04-12T05:56:37.493Z,347.70
2018-04-12T05:59:03.859Z,319.67
2018-04-12T06:01:31.702Z,305.83
2018-04-12T06:03:58.951Z,321.60
2018-04-12T06:06:25.349Z,340.37
2018-04-12T06:08:51.931Z,311.23
2018-04-12T06:11:19.043Z,344.40
2018-04-12T06:13:45.483Z,337.00
2018-04-12T06:16:11.854Z,368.77
2018-04-12T06:18:38.346Z,356.03
2018-04-12T06:21:04.730Z,401.20
2018-04-12T06:23:31.143Z,368.53
2018-04-12T06:25:57.533Z,368.77
2018-04-12T06:28:23.933Z,405.93
2018-04-12T06:30:51.071Z,400.87
2018-04-12T06:33:18.240Z,394.90
2018-04-12T06:35:44.651Z,385.10
2018-04-12T06:38:11.232Z,417.80
2018-04-12T06:40:37.684Z,378.97
2018-04-12T06:43:04.856Z,401.63
2018-04-12T06:45:31.286Z,387.07
2018-04-12T06:47:57.644Z,362.63
2018-04-12T06:50:24.092Z,358.07
2018-04-12T06:52:50.539Z,321.27
2018-04-12T06:55:16.981Z,309.77
2018-04-12T06:57:43.359Z,347.57
2018-04-12T07:00:10.518Z,334.67
2018-04-12T07:02:36.876Z,308.63
2018-04-12T07:05:03.436Z,276.40
2018-04-12T07:07:30.570Z,255.57
2018-04-12T07:09:56.964Z,268.00
2018-04-12T07:12:23.449Z,254.60
2018-04-12T07:14:50.050Z,198.57
2018-04-12T07:17:17.251Z,170.43
2018-04-12T07:19:43.686Z,165.90
2018-04-12T07:22:10.043Z,155.73
2018-04-12T07:24:37.284Z,149.40
2018-04-12T07:27:04.408Z,147.37
2018-04-12T07:29:30.767Z,133.40
2018-04-12T07:31:57.177Z,125.40
2018-04-12T07:34:23.671Z,110.80
2018-04-12T07:36:50.045Z,125.07
2018-04-12T07:39:16.584Z,121.27
2018-04-12T07:41:43.691Z,122.83
2018-04-12T07:44:10.071Z,125.67
2018-04-12T07:46:36.523Z,109.27
2018-04-12T07:49:03.657Z,100.80
2018-04-12T07:51:30.058Z,100.20
2018-04-12T07:53:57.170Z,93.13
2018-04-12T07:56:23.539Z,91.97
2018-04-12T07:58:49.935Z,102.00
2018-04-12T08:01:16.333Z,86.53
2018-04-12T08:03:43.486Z,108.40
2018-04-12T08:06:09.910Z,101.50
2018-04-12T08:08:36.277Z,95.37
2018-04-12T08:11:04.675Z,89.07
2018-04-12T08:13:32.043Z,96.00
2018-04-12T08:15:58.478Z,95.00
2018-04-12T08:18:24.883Z,91.37
2018-04-12T08:20:52.019Z,87.87
2018-04-12T08:23:19.902Z,87.57
2018-04-12T08:25:47.380Z,73.13
2018-04-12T08:28:13.738Z,77.77
2018-04-12T08:30:40.816Z,81.80
2018-04-12T08:33:07.218Z,77.30
2018-04-12T08:35:33.580Z,72.33
2018-04-12T08:38:00.710Z,68.90
2018-04-12T08:40:27.088Z,69.37
2018-04-12T08:42:54.327Z,72.60
2018-04-12T08:45:20.743Z,80.47
2018-04-12T08:47:47.164Z,75.17
2018-04-12T08:50:13.556Z,79.43
2018-04-12T08:52:39.955Z,72.17
2018-04-12T08:55:07.070Z,80.30
2018-04-12T08:57:33.858Z,68.47
2018-04-12T09:00:00.422Z,74.43
2018-04-12T09:02:27.527Z,79.40
2018-04-12T09:04:53.895Z,78.47
2018-04-12T09:07:20.313Z,78.20
2018-04-12T09:09:46.678Z,79.57
2018-04-12T09:12:13.182Z,74.27
2018-04-12T09:14:39.563Z,76.67
2018-04-12T09:17:05.920Z,83.10
2018-04-12T09:19:32.311Z,86.07
2018-04-12T09:21:58.675Z,75.43
2018-04-12T09:24:25.808Z,89.50
2018-04-12T09:26:52.191Z,93.00
2018-04-12T09:29:18.685Z,81.57
2018-04-12T09:31:45.095Z,80.67
2018-04-12T09:34:12.247Z,80.10
2018-04-12T09:36:39.396Z,83.93
2018-04-12T09:39:05.812Z,84.77
2018-04-12T09:41:32.234Z,77.20
2018-04-12T09:43:58.663Z,81.57
2018-04-12T09:46:25.091Z,77.00
2018-04-12T09:48:51.530Z,71.33
2018-04-12T09:51:17.886Z,69.57
2018-04-12T09:53:44.264Z,72.30
2018-04-12T09:56:10.680Z,65.67
2018-04-12T09:58:37.050Z,73.20
2018-04-12T10:01:10.175Z,67.00
2018-04-12T10:03:36.570Z,61.50
2018-04-12T10:06:04.936Z,65.97
2018-04-12T10:08:31.467Z,70.53
2018-04-12T10:10:57.854Z,69.33
2018-04-12T10:13:24.366Z,74.73
2018-04-12T10:15:50.763Z,67.30
2018-04-12T10:18:17.883Z,69.03
2018-04-12T10:20:44.250Z,70.83
2018-04-12T10:23:10.653Z,75.20
2018-04-12T10:25:37.109Z,71.33
2018-04-12T10:28:04.082Z,68.93
2018-04-12T10:30:30.635Z,63.30
2018-04-12T10:32:57.031Z,71.37
2018-04-12T10:35:23.439Z,67.33
2018-04-12T10:37:50.563Z,69.47
2018-04-12T10:40:16.978Z,65.67
2018-04-12T10:42:44.086Z,75.40
2018-04-12T10:45:10.795Z,70.23
2018-04-12T10:47:37.155Z,62.17
2018-04-12T10:50:03.999Z,62.20
2018-04-12T10:52:30.415Z,70.23
2018-04-12T10:54:56.831Z,56.87
2018-04-12T10:57:23.991Z,61.30
2018-04-12T10:59:51.120Z,63.07
2018-04-12T11:02:17.526Z,57.73
2018-04-12T11:04:43.960Z,56.93
2018-04-12T11:07:10.638Z,64.30
2018-04-12T11:09:37.038Z,63.63
2018-04-12T11:12:03.511Z,56.40
2018-04-12T11:14:29.910Z,54.07
2018-04-12T11:16:57.032Z,57.23
2018-04-12T11:19:23.403Z,54.60
2018-04-12T11:21:49.831Z,57.23
2018-04-12T11:24:16.432Z,52.70
2018-04-12T11:26:42.827Z,62.83
2018-04-12T11:29:09.196Z,54.63
2018-04-12T11:31:35.598Z,54.60
2018-04-12T11:34:02.787Z,57.10
2018-04-12T11:36:29.236Z,53.40
2018-04-12T11:38:56.358Z,52.33
2018-04-12T11:41:22.778Z,54.00
2018-04-12T11:43:49.147Z,52.40
2018-04-12T11:46:15.512Z,58.53
2018-04-12T11:48:41.906Z,50.60
2018-04-12T11:51:08.275Z,50.77
2018-04-12T11:53:34.670Z,53.70
2018-04-12T11:56:01.050Z,55.27
2018-04-12T11:58:27.463Z,52.70
2018-04-12T12:00:53.890Z,54.93
2018-04-12T12:03:20.267Z,60.10
2018-04-12T12:05:46.647Z,54.93
2018-04-12T12:08:13.805Z,48.83
2018-04-12T12:10:40.930Z,58.30
2018-04-12T12:13:08.126Z,54.57
2018-04-12T12:15:34.524Z,50.20
2018-04-12T12:18:00.864Z,52.00
2018-04-12T12:20:28.036Z,50.77
2018-04-12T12:22:54.439Z,52.53
2018-04-12T12:25:20.815Z,47.90
2018-04-12T12:27:47.239Z,48.97
2018-04-12T12:30:13.647Z,48.70
2018-04-12T12:32:40.020Z,43.30
2018-04-12T12:35:06.426Z,51.87
2018-04-12T12:37:32.788Z,48.33
2018-04-12T12:39:59.150Z,42.93
2018-04-12T12:42:25.526Z,48.30
2018-04-12T12:44:51.903Z,47.50
2018-04-12T12:47:18.290Z,45.80
2018-04-12T12:49:44.659Z,54.00
2018-04-12T12:52:11.766Z,52.60
2018-04-12T12:54:38.138Z,49.17
2018-04-12T12:57:04.515Z,47.77
2018-04-12T12:59:30.935Z,55.77
2018-04-12T13:01:57.349Z,55.13
2018-04-12T13:04:23.777Z,52.20
2018-04-12T13:06:50.151Z,49.87
2018-04-12T13:09:16.606Z,53.63
2018-04-12T13:11:42.960Z,53.13
2018-04-12T13:14:09.356Z,59.80
2018-04-12T13:16:38.132Z,49.03
2018-04-12T13:19:04.479Z,62.87
2018-04-12T13:21:30.856Z,54.80
2018-04-12T13:23:57.274Z,59.10
2018-04-12T13:26:23.673Z,55.00
2018-04-12T13:28:50.838Z,56.40
2018-04-12T13:31:17.236Z,61.00
2018-04-12T13:33:43.624Z,63.10
2018-04-12T13:36:10.035Z,59.60
2018-04-12T13:38:36.423Z,57.10
2018-04-12T13:41:02.820Z,59.47
2018-04-12T13:43:29.160Z,54.70
2018-04-12T13:45:55.639Z,44.20
2018-04-12T13:48:22.742Z,49.50
2018-04-12T13:50:49.140Z,44.67
2018-04-12T13:53:15.489Z,44.10
2018-04-12T13:55:42.605Z,44.03
2018-04-12T13:58:09.016Z,46.87
2018-04-12T14:00:35.451Z,46.33
2018-04-12T14:03:01.834Z,40.77
2018-04-12T14:05:28.172Z,51.63
2018-04-12T14:07:54.659Z,43.23
2018-04-12T14:10:21.002Z,46.90
2018-04-12T14:12:47.396Z,50.17
2018-04-12T14:15:13.854Z,44.23
2018-04-12T14:17:40.938Z,44.47
2018-04-12T14:20:07.304Z,42.67
2018-04-12T14:22:33.638Z,44.77
2018-04-12T14:24:59.974Z,52.03
2018-04-12T14:27:26.358Z,54.17
2018-04-12T14:29:52.693Z,55.23
2018-04-12T14:32:19.051Z,97.33
2018-04-12T14:34:46.239Z,42.50
2018-04-12T14:37:13.364Z,50.20
2018-04-12T14:39:39.744Z,54.37
2018-04-12T14:42:06.167Z,39.60
2018-04-12T14:44:32.563Z,52.07
2018-04-12T14:46:59.018Z,42.27
2018-04-12T14:49:26.107Z,46.10
2018-04-12T14:51:52.509Z,48.47
2018-04-12T14:54:19.614Z,47.73
2018-04-12T14:56:46.009Z,49.63
2018-04-12T14:59:12.399Z,43.00
2018-04-12T15:01:39.533Z,40.73
2018-04-12T15:04:05.872Z,42.03
2018-04-12T15:06:32.259Z,44.07
2018-04-12T15:08:58.632Z,46.00
2018-04-12T15:11:25.006Z,49.77
2018-04-12T15:13:51.323Z,52.33
2018-04-12T15:16:17.684Z,48.57
2018-04-12T15:18:44.115Z,43.70
2018-04-12T15:21:11.230Z,48.47
2018-04-12T15:23:37.608Z,37.60
2018-04-12T15:26:04.783Z,45.40
2018-04-12T15:28:31.947Z,39.53
2018-04-12T15:30:59.064Z,31.27
2018-04-12T15:33:25.487Z,31.53
2018-04-12T15:35:51.867Z,33.70
2018-04-12T15:38:18.242Z,34.93
2018-04-12T15:40:44.627Z,25.40
2018-04-12T15:43:11.744Z,32.23
2018-04-12T15:45:38.080Z,35.60
2018-04-12T15:48:05.359Z,27.97
2018-04-12T15:50:31.739Z,28.47
2018-04-12T15:52:58.141Z,23.23
2018-04-12T15:55:24.667Z,24.47
2018-04-12T15:57:51.135Z,24.73
2018-04-12T16:00:17.589Z,30.43
2018-04-12T16:02:43.952Z,28.20
2018-04-12T16:05:10.290Z,28.70
2018-04-12T16:07:36.627Z,22.70
2018-04-12T16:10:03.506Z,23.33
2018-04-12T16:12:29.885Z,20.50
2018-04-12T16:14:56.980Z,22.53
2018-04-12T16:17:23.351Z,25.53
2018-04-12T16:19:49.735Z,23.50
2018-04-12T16:22:16.857Z,25.30
2018-04-12T16:24:43.239Z,23.77
2018-04-12T16:27:09.764Z,23.13
2018-04-12T16:29:36.228Z,21.03
2018-04-12T16:32:02.989Z,25.73
2018-04-12T16:34:30.149Z,21.07
2018-04-12T16:36:56.518Z,20.43
2018-04-12T16:39:22.909Z,19.37
2018-04-12T16:41:49.270Z,24.73
2018-04-12T16:44:15.643Z,19.77
2018-04-12T16:46:42.003Z,26.50
2018-04-12T16:49:08.424Z,20.07
2018-04-12T16:51:34.863Z,19.90
2018-04-12T16:54:01.256Z,20.00
2018-04-12T16:56:27.706Z,22.73
2018-04-12T16:58:54.090Z,23.73
2018-04-12T17:01:20.450Z,23.90
2018-04-12T17:03:46.830Z,25.60
2018-04-12T17:06:13.249Z,23.30
2018-04-12T17:08:39.635Z,23.97
2018-04-12T17:11:06.012Z,32.93
2018-04-12T17:13:32.463Z,22.30
2018-04-12T17:16:01.656Z,22.07
2018-04-12T17:18:28.024Z,21.20
2018-04-12T17:20:55.226Z,25.40
2018-04-12T17:23:21.630Z,24.40
2018-04-12T17:25:48.754Z,25.73
2018-04-12T17:28:15.227Z,22.43
2018-04-12T17:30:42.400Z,22.10
2018-04-12T17:33:09.565Z,22.47
2018-04-12T17:35:36.007Z,27.17
2018-04-12T17:38:02.524Z,26.97
2018-04-12T17:40:29.642Z,33.77
2018-04-12T17:42:57.502Z,27.80
2018-04-12T17:45:24.778Z,32.87
2018-04-12T17:47:51.167Z,38.60
2018-04-12T17:50:18.278Z,28.60
2018-04-12T17:52:44.676Z,35.97
2018-04-12T17:55:11.046Z,43.77
2018-04-12T17:57:37.538Z,39.73
2018-04-12T18:00:04.744Z,35.97
2018-04-12T18:02:31.153Z,39.77
2018-04-12T18:04:57.507Z,38.80
2018-04-12T18:07:23.933Z,45.10
2018-04-12T18:09:50.310Z,42.30
2018-04-12T18:12:16.731Z,37.93
2018-04-12T18:14:43.299Z,45.27
2018-04-12T18:17:09.752Z,45.57
2018-04-12T18:19:36.315Z,47.50
2018-04-12T18:22:03.040Z,55.43
2018-04-12T18:24:29.380Z,43.23
2018-04-12T18:26:55.779Z,45.90
2018-04-12T18:29:22.876Z,61.47
2018-04-12T18:31:49.299Z,57.43
2018-04-12T18:34:15.694Z,57.27
2018-04-12T18:36:42.109Z,55.37
2018-04-12T18:39:08.546Z,61.07
2018-04-12T18:41:35.002Z,64.57
2018-04-12T18:44:01.429Z,57.93
2018-04-12T18:46:34.763Z,64.30
2018-04-12T18:49:01.160Z,49.80
2018-04-12T18:51:27.554Z,52.50
2018-04-12T18:53:53.991Z,61.47
2018-04-12T18:56:20.563Z,63.60
2018-04-12T18:58:47.750Z,75.03
2018-04-12T19:01:14.111Z,68.27
2018-04-12T19:03:40.470Z,74.97
2018-04-12T19:06:07.555Z,62.13
2018-04-12T19:08:33.921Z,62.53
2018-04-12T19:11:00.263Z,78.83
2018-04-12T19:13:26.615Z,77.87
2018-04-12T19:15:52.935Z,86.07
2018-04-12T19:18:19.291Z,88.93
2018-04-12T19:20:45.612Z,99.60
2018-04-12T19:23:11.951Z,91.47
2018-04-12T19:25:38.266Z,84.47
2018-04-12T19:28:05.341Z,89.33
2018-04-12T19:30:32.413Z,69.97
2018-04-12T19:32:58.762Z,63.33
2018-04-12T19:35:25.125Z,77.37
2018-04-12T19:37:51.458Z,90.53
2018-04-12T19:40:17.872Z,82.83
2018-04-12T19:42:44.951Z,112.57
2018-04-12T19:45:12.039Z,123.07
2018-04-12T19:47:38.379Z,99.87
2018-04-12T19:50:05.264Z,86.37
2018-04-12T19:52:32.354Z,118.63
2018-04-12T19:54:59.453Z,128.90
2018-04-12T19:57:25.772Z,91.13
2018-04-12T19:59:52.167Z,113.03
2018-04-12T20:02:18.479Z,96.47
2018-04-12T20:04:44.847Z,128.27
2018-04-12T20:07:11.215Z,122.70
2018-04-12T20:09:37.554Z,105.63
2018-04-12T20:12:04.616Z,124.40
2018-04-12T20:14:31.727Z,119.00
2018-04-12T20:16:58.081Z,120.57
2018-04-12T20:19:24.650Z,147.03
2018-04-12T20:21:51.742Z,142.23
2018-04-12T20:24:18.090Z,138.50
2018-04-12T20:26:44.439Z,138.13
2018-04-12T20:29:10.765Z,125.27
2018-04-12T20:31:37.839Z,131.63
2018-04-12T20:34:04.799Z,162.60
2018-04-12T20:36:31.215Z,152.90
2018-04-12T20:38:57.554Z,173.10
2018-04-12T20:41:24.684Z,156.67
2018-04-12T20:43:51.003Z,137.57
2018-04-12T20:46:17.344Z,143.37
2018-04-12T20:48:44.415Z,138.97
2018-04-12T20:51:10.770Z,124.57
2018-04-12T20:53:37.124Z,113.47
2018-04-12T20:56:03.995Z,130.17
2018-04-12T20:58:30.363Z,120.83
2018-04-12T21:00:57.448Z,118.03
2018-04-12T21:03:23.777Z,121.20
2018-04-12T21:05:50.135Z,113.23
2018-04-12T21:08:16.515Z,128.33
2018-04-12T21:10:42.867Z,158.17
2018-04-12T21:13:09.207Z,163.40
2018-04-12T21:15:36.340Z,141.00
2018-04-12T21:18:02.737Z,143.57
2018-04-12T21:20:29.082Z,126.57
2018-04-12T21:22:55.602Z,128.63
2018-04-12T21:25:21.922Z,126.20
2018-04-12T21:27:48.242Z,133.43
2018-04-12T21:30:14.567Z,147.53
2018-04-12T21:32:40.929Z,141.10
2018-04-12T21:35:07.286Z,152.20
2018-04-12T21:37:33.606Z,137.50
2018-04-12T21:39:59.918Z,127.53
2018-04-12T21:42:26.254Z,114.77
2018-04-12T21:44:52.570Z,113.73
2018-04-12T21:47:18.930Z,120.73
2018-04-12T21:49:45.273Z,108.27
2018-04-12T21:52:12.370Z,103.43
2018-04-12T21:54:38.823Z,101.90
2018-04-12T21:57:05.177Z,121.33
2018-04-12T21:59:31.847Z,123.10
2018-04-12T22:01:58.208Z,148.23
2018-04-12T22:04:24.542Z,116.77
2018-04-12T22:06:50.886Z,229.03
2018-04-12T22:09:18.747Z,222.27
2018-04-12T22:11:45.059Z,266.87
2018-04-12T22:14:12.129Z,211.27
2018-04-12T22:16:38.461Z,202.90
2018-04-12T22:19:04.759Z,194.83
2018-04-12T22:21:31.071Z,186.43
2018-04-12T22:23:57.398Z,204.43
2018-04-12T22:26:23.731Z,202.93
2018-04-12T22:28:50.802Z,164.53
2018-04-12T22:31:17.147Z,162.30
2018-04-12T22:33:43.471Z,178.03
2018-04-12T22:36:10.563Z,192.67
2018-04-12T22:38:36.893Z,194.93
2018-04-12T22:41:03.234Z,186.17
2018-04-12T22:43:29.607Z,184.47
2018-04-12T22:45:56.722Z,192.30
2018-04-12T22:48:23.800Z,157.03
2018-04-12T22:50:50.107Z,203.67
2018-04-12T22:53:16.443Z,211.37
2018-04-12T22:55:42.754Z,183.13
2018-04-12T22:58:09.082Z,196.83
2018-04-12T23:00:35.398Z,234.90
2018-04-12T23:03:01.878Z,253.10
2018-04-12T23:05:28.910Z,228.90
2018-04-12T23:07:55.219Z,214.43
2018-04-12T23:10:22.291Z,219.73
2018-04-12T23:12:48.595Z,225.20
2018-04-12T23:15:14.956Z,244.60
2018-04-12T23:17:42.011Z,200.90
2018-04-12T23:20:08.330Z,206.20
2018-04-12T23:22:34.667Z,184.40
2018-04-12T23:25:00.978Z,203.33
2018-04-12T23:27:27.311Z,237.00
2018-04-12T23:29:54.393Z,245.77
2018-04-12T23:32:20.719Z,269.00
2018-04-12T23:34:47.068Z,273.80
2018-04-12T23:37:13.359Z,220.03
2018-04-12T23:39:39.679Z,304.27
2018-04-12T23:42:05.974Z,283.37
2018-04-12T23:44:33.082Z,260.27
2018-04-12T23:46:59.390Z,236.07
2018-04-12T23:49:25.816Z,252.27
2018-04-12T23:51:52.132Z,248.10
2018-04-12T23:54:18.463Z,280.53
2018-04-12T23:56:44.782Z,264.50
2018-04-12T23:59:11.090Z,249.10
